Nuiqsut Airport Nuiqsut US
ICAO: PAQT
IATA:
Category: Medium
Scheduled Services:

Elevation: 38 ft
TransAlt. 0 ft.

Airport Communications:
ANCHORAGE CNTR:119.4
ASOS:122.5
CTAF:122.8
DEADHORSE RDO:122.5

PAQT Zoom In..

Runways:

(A) RW 05 length 4589 ft width 100 ft
---- / hdg 49

(B) RW 23 length 4589 ft width 100 ft
---- / hdg 229

Location; PAQT
Day. 24 / Time. 12.53 Zulu
* Altimeter: 29.85
* Temperature: -04° c. -24.8°f.
* Wind from: 060° Speed 14 kn.
Dewpoint: -04° c.
Visibility: 6 Statute Miles.
Clouds: Overcast 900 ft.
Conditions: Mist.

PAQT 241253Z AUTO 06014KT 6SM BR OVC009 M04/M04 A2985 RMK AO2 SNE15B19E28 CIG 006V010 SLP109 P0000 T10391039 TSNO


Wind From 060°
Speed 14 kn.

 
 
jpsmedia.com for Web Design SOUNDCLOUD worldairports.se 2018   terms of use